M I D A S
Marine Information and Data Acquisition System
Tripno 1187 of the Zeeleeuw from 2006-11-22 07:29:31 to 2006-11-22 16:52:26
Back to CruiseResearch ActivitiesStationsMapUnderway DataData graphs

EquipmentUnitsComments
TimeDGPSUTC
LatitudeDGPSDM.mWGS84
LongitudeDGPSDM.mWGS84
SpeedMeteo Stationm/sRelative wind speed
DirectionMeteo StationdegRelative wind direction
TemperatureMeteo Stationdeg CelciusAir temperature
PressureMeteo StationPaAtmospheric pressure
HumidityMeteo Station%Relative humidity
Missing or incorrect values are displayed as -999
Metereological data collected by the RV Zeeleeuw from 2006-11-22 07:19:05 to 2006-11-22 17:03:09
                                                                                    Next 1000 lines
Time Latitude Longitude Speed Direction Temperature Pressure Humidity
2006-11-22 07:19:16 51°13.597 2°56.092 7 39 9.5 99850 68
2006-11-22 07:19:20 51°13.598 2°56.09 6.3 26 9.5 99860 69
2006-11-22 07:19:25 51°13.599 2°56.086 8.7 34 9.5 99860 69
2006-11-22 07:19:30 51°13.6 2°56.082 8.2 43 9.5 99850 68
2006-11-22 07:19:36 51°13.601 2°56.075 5.4 45 9.5 99850 68
2006-11-22 07:19:41 51°13.603 2°56.07 6.4 43 9.5 99850 68
2006-11-22 07:19:46 51°13.604 2°56.064 5.1 39 9.5 99850 68
2006-11-22 07:19:51 51°13.605 2°56.057 6.3 23 9.5 99850 68
2006-11-22 07:19:56 51°13.607 2°56.05 6.7 39 9.5 99850 68
2006-11-22 07:20:01 51°13.608 2°56.043 8 28 9.5 99850 68
2006-11-22 07:20:06 51°13.61 2°56.035 9.6 42 9.5 99850 68
2006-11-22 07:20:11 51°13.611 2°56.027 7.6 26 9.6 99850 69
2006-11-22 07:20:16 51°13.613 2°56.019 7.7 34 9.6 99850 69
2006-11-22 07:20:21 51°13.615 2°56.01 6.8 18 9.6 99850 69
2006-11-22 07:20:26 51°13.617 2°56.001 7.8 32 9.6 99850 69
2006-11-22 07:20:31 51°13.619 2°55.992 8.4 23 9.6 99850 68
2006-11-22 07:20:36 51°13.621 2°55.983 7.2 39 9.6 99850 68
2006-11-22 07:20:41 51°13.624 2°55.973 8.1 25 9.6 99850 68
2006-11-22 07:20:46 51°13.626 2°55.964 7.9 33 9.6 99850 68
2006-11-22 07:20:51 51°13.629 2°55.955 6.6 24 9.6 99850 68
2006-11-22 07:20:56 51°13.632 2°55.945 5.3 36 9.6 99850 68
2006-11-22 07:21:01 51°13.635 2°55.935 5.5 21 9.6 99850 68
2006-11-22 07:21:06 51°13.638 2°55.926 7.4 32 9.6 99850 68
2006-11-22 07:21:12 51°13.643 2°55.914 6.5 26 9.6 99850 68
2006-11-22 07:21:16 51°13.646 2°55.906 6.1 38 9.6 99850 68
2006-11-22 07:21:21 51°13.65 2°55.896 7.1 26 9.6 99850 68
2006-11-22 07:21:26 51°13.654 2°55.886 7.5 32 9.6 99850 68
2006-11-22 07:21:31 51°13.658 2°55.876 6.8 18 9.6 99840 68
2006-11-22 07:21:36 51°13.662 2°55.865 7.6 42 9.6 99840 68
2006-11-22 07:21:41 51°13.666 2°55.856 6.2 28 9.6 99850 68
2006-11-22 07:21:46 51°13.671 2°55.845 6.6 35 9.6 99850 68
2006-11-22 07:21:51 51°13.675 2°55.836 6.3 25 9.6 99840 68
2006-11-22 07:21:56 51°13.68 2°55.826 6.5 32 9.6 99840 68
2006-11-22 07:22:01 51°13.684 2°55.816 5.8 26 9.6 99850 69
2006-11-22 07:22:06 51°13.688 2°55.806 5.9 33 9.6 99850 69
2006-11-22 07:22:11 51°13.693 2°55.797 5.3 44 9.6 99850 69
2006-11-22 07:22:16 51°13.696 2°55.788 4.7 32 9.6 99850 69
2006-11-22 07:22:19 51°13.699 2°55.783 5.4 28 9.6 99850 69
2006-11-22 07:22:26 51°13.704 2°55.771 5.5 39 9.6 99850 69
2006-11-22 07:22:30 51°13.707 2°55.763 6.4 26 9.6 99850 69
2006-11-22 07:22:36 51°13.711 2°55.753 8.7 38 9.6 99850 69
2006-11-22 07:22:41 51°13.714 2°55.745 8.5 26 9.6 99850 69
2006-11-22 07:22:46 51°13.717 2°55.737 7.8 33 9.6 99850 69
2006-11-22 07:22:50 51°13.719 2°55.731 7.5 43 9.6 99850 69
2006-11-22 07:22:55 51°13.722 2°55.724 7 44 9.6 99850 69
2006-11-22 07:23:01 51°13.724 2°55.717 5.6 21 9.6 99850 69
2006-11-22 07:23:06 51°13.726 2°55.713 5 44 9.6 99850 69
2006-11-22 07:23:10 51°13.726 2°55.712 3.3 25 9.6 99850 69
2006-11-22 07:23:16 51°13.727 2°55.712 2.2 33 9.6 99850 69
2006-11-22 07:23:20 51°13.728 2°55.713 2.8 19 9.6 99850 69
2006-11-22 07:23:26 51°13.729 2°55.716 3.1 36 9.6 99850 69
2006-11-22 07:23:30 51°13.73 2°55.718 3.4 24 9.7 99850 69
2006-11-22 07:23:35 51°13.731 2°55.722 2.7 32 9.7 99850 69
2006-11-22 07:23:40 51°13.732 2°55.725 2.7 21 9.6 99850 69
2006-11-22 07:23:45 51°13.734 2°55.728 2.8 30 9.6 99850 69
2006-11-22 07:23:50 51°13.736 2°55.731 3.8 269 9.7 99850 69
2006-11-22 07:23:56 51°13.738 2°55.733 4.5 39 9.7 99850 69
2006-11-22 07:24:00 51°13.739 2°55.734 3.9 24 9.7 99850 69
2006-11-22 07:24:05 51°13.74 2°55.735 3.7 41 9.7 99850 69
2006-11-22 07:24:10 51°13.74 2°55.735 5.4 20 9.7 99850 69
2006-11-22 07:24:15 51°13.74 2°55.734 3 270 9.7 99850 69
2006-11-22 07:24:20 51°13.739 2°55.732 1.9 267 9.7 99850 69
2006-11-22 07:24:25 51°13.738 2°55.73 3.4 40 9.7 99850 69
2006-11-22 07:24:30 51°13.737 2°55.728 4.7 21 9.7 99850 69
2006-11-22 07:24:36 51°13.734 2°55.725 4.5 29 9.7 99850 69
2006-11-22 07:24:41 51°13.732 2°55.722 2.6 262 9.7 99850 69
2006-11-22 07:24:46 51°13.729 2°55.719 4.6 44 9.7 99850 69
2006-11-22 07:24:51 51°13.727 2°55.716 4.1 23 9.7 99850 69
2006-11-22 07:24:56 51°13.726 2°55.714 2.4 30 9.7 99850 69
2006-11-22 07:25:01 51°13.724 2°55.712 2.7 29 9.7 99860 69
2006-11-22 07:25:06 51°13.723 2°55.71 3.1 38 9.7 99860 69
2006-11-22 07:25:10 51°13.723 2°55.709 5 25 9.7 99850 69
2006-11-22 07:25:15 51°13.723 2°55.708 2.4 267 9.7 99850 69
2006-11-22 07:25:20 51°13.725 2°55.708 3.6 266 9.7 99850 69
2006-11-22 07:25:25 51°13.727 2°55.708 2.9 238 9.7 99850 69
2006-11-22 07:25:30 51°13.73 2°55.708 3.4 26 9.7 99850 69
2006-11-22 07:25:35 51°13.733 2°55.707 3.5 323 9.7 99850 69
2006-11-22 07:25:40 51°13.737 2°55.706 3.9 322 9.7 99850 69
2006-11-22 07:25:46 51°13.742 2°55.703 4.9 324 9.7 99850 69
2006-11-22 07:25:50 51°13.746 2°55.7 5.1 24 9.7 99850 69
2006-11-22 07:25:55 51°13.751 2°55.696 3.6 32 9.7 99850 69
2006-11-22 07:26:00 51°13.758 2°55.691 3.9 21 9.7 99850 69
2006-11-22 07:26:06 51°13.766 2°55.683 6 34 9.7 99850 69
2006-11-22 07:26:10 51°13.773 2°55.678 6.4 20 9.7 99850 69
2006-11-22 07:26:16 51°13.783 2°55.67 6 328 9.7 99850 69
2006-11-22 07:26:20 51°13.79 2°55.665 4.6 322 9.7 99850 69
2006-11-22 07:26:25 51°13.8 2°55.657 7 323 9.7 99850 69
2006-11-22 07:26:30 51°13.809 2°55.649 7.2 19 9.7 99850 69
2006-11-22 07:26:36 51°13.822 2°55.64 7.1 329 9.7 99850 69
2006-11-22 07:26:40 51°13.83 2°55.634 6.5 330 9.7 99850 69
2006-11-22 07:26:45 51°13.841 2°55.626 7.6 329 9.7 99850 69
2006-11-22 07:26:50 51°13.852 2°55.618 5.9 320 9.7 99850 69
2006-11-22 07:26:55 51°13.863 2°55.609 7.2 318 9.7 99850 69
2006-11-22 07:27:00 51°13.875 2°55.601 6.1 318 9.7 99850 69
2006-11-22 07:27:05 51°13.887 2°55.592 6.7 326 9.7 99850 69
2006-11-22 07:27:10 51°13.899 2°55.584 9.5 315 9.7 99850 69
2006-11-22 07:27:15 51°13.911 2°55.576 10.4 323 9.7 99850 69
2006-11-22 07:27:20 51°13.923 2°55.567 9.8 317 9.7 99850 69
2006-11-22 07:27:25 51°13.935 2°55.559 9.5 236 9.7 99850 69
2006-11-22 07:27:30 51°13.947 2°55.55 11.1 23 9.7 99850 69
2006-11-22 07:27:35 51°13.959 2°55.542 8.3 33 9.7 99850 69
2006-11-22 07:27:40 51°13.97 2°55.533 8.8 24 9.7 99850 69
2006-11-22 07:27:46 51°13.983 2°55.523 6.8 321 9.7 99850 69
2006-11-22 07:27:50 51°13.992 2°55.517 9.7 21 9.7 99840 69
2006-11-22 07:27:54 51°14.001 2°55.51 8.3 239 9.7 99840 69
2006-11-22 07:28:00 51°14.014 2°55.502 6.7 23 9.7 99850 69
2006-11-22 07:28:05 51°14.025 2°55.494 7 318 9.7 99850 69
2006-11-22 07:28:10 51°14.035 2°55.487 6.7 325 9.7 99840 69
2006-11-22 07:28:15 51°14.046 2°55.48 5.7 318 9.7 99840 69
2006-11-22 07:28:20 51°14.056 2°55.473 5.7 317 9.7 99840 69
2006-11-22 07:28:26 51°14.068 2°55.464 9.9 34 9.7 99840 69
2006-11-22 07:28:30 51°14.077 2°55.459 8.6 26 9.7 99850 69
2006-11-22 07:28:36 51°14.089 2°55.45 6.7 317 9.7 99850 69
2006-11-22 07:28:40 51°14.097 2°55.444 7 323 9.7 99850 69
2006-11-22 07:28:45 51°14.107 2°55.436 9.8 33 9.7 99850 69
2006-11-22 07:28:51 51°14.12 2°55.426 8.9 21 9.7 99850 69
2006-11-22 07:28:54 51°14.126 2°55.421 10.4 35 9.7 99850 69
2006-11-22 07:29:00 51°14.139 2°55.412 9.2 24 9.7 99850 69
2006-11-22 07:29:06 51°14.151 2°55.401 8.8 36 9.7 99850 69
2006-11-22 07:29:11 51°14.161 2°55.392 12.2 20 9.7 99850 69
2006-11-22 07:29:16 51°14.172 2°55.382 10.6 31 9.7 99850 69
2006-11-22 07:29:21 51°14.182 2°55.372 11.3 20 9.7 99840 69
2006-11-22 07:29:26 51°14.192 2°55.362 12.8 38 9.7 99840 69
2006-11-22 07:29:30 51°14.2 2°55.353 13.3 26 9.7 99840 69
2006-11-22 07:29:36 51°14.211 2°55.339 13.4 34 9.7 99840 69
2006-11-22 07:29:41 51°14.221 2°55.328 13.2 316 9.7 99840 70
2006-11-22 07:29:46 51°14.23 2°55.315 13.2 316 9.7 99840 70
2006-11-22 07:29:50 51°14.237 2°55.305 11.7 315 9.7 99840 70
2006-11-22 07:29:56 51°14.247 2°55.289 12 316 9.7 99840 70
2006-11-22 07:30:01 51°14.255 2°55.275 13.3 24 9.7 99830 71
2006-11-22 07:30:05 51°14.262 2°55.264 11.2 321 9.7 99830 71
2006-11-22 07:30:10 51°14.27 2°55.249 12.3 315 9.7 99840 71
2006-11-22 07:30:15 51°14.278 2°55.234 13.7 318 9.7 99840 71
2006-11-22 07:30:20 51°14.286 2°55.22 10.5 25 9.7 99830 71
2006-11-22 07:30:26 51°14.297 2°55.201 11.4 320 9.7 99830 71
2006-11-22 07:30:30 51°14.304 2°55.189 11.3 317 9.7 99840 71
2006-11-22 07:30:36 51°14.314 2°55.171 13.5 39 9.7 99840 71
2006-11-22 07:30:39 51°14.319 2°55.162 14.8 25 9.7 99840 71
2006-11-22 07:30:46 51°14.332 2°55.14 15 316 9.7 99840 71
2006-11-22 07:30:50 51°14.339 2°55.128 15.2 24 9.7 99830 71
2006-11-22 07:30:56 51°14.35 2°55.109 15.6 37 9.7 99830 71
2006-11-22 07:31:00 51°14.358 2°55.096 14.4 23 9.7 99830 71
2006-11-22 07:31:06 51°14.369 2°55.079 14.8 37 9.7 99830 71
2006-11-22 07:31:10 51°14.377 2°55.067 15.7 25 9.7 99830 71
2006-11-22 07:31:16 51°14.389 2°55.05 14.6 36 9.7 99830 71
2006-11-22 07:31:19 51°14.395 2°55.042 13.8 24 9.7 99810 71
2006-11-22 07:31:25 51°14.408 2°55.026 13.7 233 9.7 99810 71
2006-11-22 07:31:30 51°14.42 2°55.012 14.2 26 9.7 99830 71
2006-11-22 07:31:36 51°14.434 2°54.999 14.3 35 9.7 99830 71
2006-11-22 07:31:40 51°14.444 2°54.99 13.5 25 9.7 99800 71
2006-11-22 07:31:45 51°14.456 2°54.98 14.2 238 9.7 99800 71
2006-11-22 07:31:50 51°14.469 2°54.971 12.9 27 9.7 99820 71
2006-11-22 07:31:55 51°14.483 2°54.962 14.2 237 9.7 99820 71
2006-11-22 07:32:01 51°14.499 2°54.954 12.9 25 9.8 99810 71
2006-11-22 07:32:05 51°14.51 2°54.949 15.1 241 9.8 99810 71
2006-11-22 07:32:10 51°14.525 2°54.946 13.6 22 9.8 99800 71
2006-11-22 07:32:15 51°14.54 2°54.943 13.7 240 9.8 99800 71
2006-11-22 07:32:20 51°14.554 2°54.943 13.7 23 9.8 99820 71
2006-11-22 07:32:26 51°14.573 2°54.942 13.9 244 9.8 99820 71
2006-11-22 07:32:30 51°14.585 2°54.943 13.6 21 9.8 99810 72
2006-11-22 07:32:35 51°14.6 2°54.943 14 243 9.8 99810 72
2006-11-22 07:32:40 51°14.615 2°54.944 13.4 24 9.8 99820 72
2006-11-22 07:32:46 51°14.634 2°54.944 13.1 244 9.8 99820 72
2006-11-22 07:32:50 51°14.646 2°54.943 13.3 20 9.8 99820 72
2006-11-22 07:32:55 51°14.662 2°54.944 11.7 249 9.8 99820 72
2006-11-22 07:33:00 51°14.676 2°54.944 13.7 20 9.8 99820 71
2006-11-22 07:33:06 51°14.696 2°54.947 12.9 247 9.8 99820 71
2006-11-22 07:33:10 51°14.708 2°54.95 11.1 251 9.8 99820 71
2006-11-22 07:33:15 51°14.725 2°54.951 11.8 245 9.8 99820 71
2006-11-22 07:33:20 51°14.74 2°54.953 13.9 22 9.8 99830 71
2006-11-22 07:33:25 51°14.755 2°54.957 12.5 247 9.8 99830 71
2006-11-22 07:33:30 51°14.772 2°54.96 11.5 21 9.8 99820 71
2006-11-22 07:33:36 51°14.791 2°54.964 9.8 245 9.8 99820 71
2006-11-22 07:33:40 51°14.804 2°54.964 10.7 22 9.8 99820 71
2006-11-22 07:33:46 51°14.824 2°54.966 12.2 241 9.8 99820 71
2006-11-22 07:33:50 51°14.837 2°54.965 12.9 23 9.8 99840 71
2006-11-22 07:33:55 51°14.855 2°54.964 13.4 242 9.8 99840 71
2006-11-22 07:34:01 51°14.874 2°54.96 14.4 22 9.8 99830 72
2006-11-22 07:34:05 51°14.887 2°54.958 13.5 245 9.8 99830 72
2006-11-22 07:34:10 51°14.905 2°54.958 10.6 25 9.8 99820 73
2006-11-22 07:34:16 51°14.926 2°54.954 12.4 243 9.8 99820 73
2006-11-22 07:34:21 51°14.942 2°54.951 12.8 23 9.9 99800 73
2006-11-22 07:34:25 51°14.956 2°54.947 12.3 244 9.9 99800 73
2006-11-22 07:34:30 51°14.972 2°54.943 14.4 28 9.9 99830 73
2006-11-22 07:34:35 51°14.99 2°54.939 13.9 238 9.9 99830 73
2006-11-22 07:34:41 51°15.011 2°54.935 13.7 23 9.9 99810 73
2006-11-22 07:34:45 51°15.024 2°54.93 16.4 237 9.9 99810 73
2006-11-22 07:34:50 51°15.04 2°54.926 14.6 25 9.9 99800 73
2006-11-22 07:34:55 51°15.058 2°54.918 14.6 238 9.9 99800 73
2006-11-22 07:35:00 51°15.074 2°54.911 17 22 9.9 99790 73
2006-11-22 07:35:06 51°15.095 2°54.902 16.5 31 9.9 99790 73
2006-11-22 07:35:10 51°15.108 2°54.895 13 21 9.9 99810 73
2006-11-22 07:35:14 51°15.12 2°54.887 14.8 234 9.9 99810 73
2006-11-22 07:35:21 51°15.142 2°54.871 16.4 24 9.9 99800 73
2006-11-22 07:35:25 51°15.154 2°54.86 17.1 34 9.9 99800 73
2006-11-22 07:35:30 51°15.17 2°54.848 16.9 22 9.9 99780 73
2006-11-22 07:35:35 51°15.184 2°54.835 16.1 31 9.9 99780 73
2006-11-22 07:35:40 51°15.2 2°54.822 16.2 23 9.9 99810 73
2006-11-22 07:35:46 51°15.218 2°54.806 15.5 33 9.9 99810 73
2006-11-22 07:35:50 51°15.23 2°54.795 16.1 21 9.9 99780 72
2006-11-22 07:35:56 51°15.248 2°54.778 15.9 38 9.9 99780 72
2006-11-22 07:36:00 51°15.26 2°54.768 16.6 21 9.9 99790 72
2006-11-22 07:36:05 51°15.276 2°54.755 15.3 36 9.9 99790 72
2006-11-22 07:36:10 51°15.29 2°54.742 15.8 23 9.8 99790 72
2006-11-22 07:36:15 51°15.306 2°54.728 15.9 37 9.8 99790 72
2006-11-22 07:36:20 51°15.322 2°54.715 17.8 22 9.9 99790 72
2006-11-22 07:36:25 51°15.338 2°54.702 17.9 33 9.9 99790 72
2006-11-22 07:36:30 51°15.353 2°54.688 17.9 22 9.9 99770 72
2006-11-22 07:36:36 51°15.373 2°54.673 17.3 37 9.9 99770 72
2006-11-22 07:36:40 51°15.386 2°54.66 14.4 20 9.8 99780 72
2006-11-22 07:36:46 51°15.403 2°54.647 15.9 36 9.8 99780 72
2006-11-22 07:36:50 51°15.416 2°54.636 16.1 23 9.8 99780 71
2006-11-22 07:36:56 51°15.435 2°54.619 15 36 9.8 99780 71
2006-11-22 07:37:01 51°15.45 2°54.606 16.3 24 9.9 99790 72
2006-11-22 07:37:05 51°15.463 2°54.595 16.9 31 9.9 99790 72
2006-11-22 07:37:10 51°15.48 2°54.581 14.9 23 9.9 99820 72
2006-11-22 07:37:15 51°15.496 2°54.567 15.6 35 9.9 99820 72
2006-11-22 07:37:20 51°15.511 2°54.554 15.5 25 9.9 99780 73
2006-11-22 07:37:26 51°15.531 2°54.538 15.1 36 9.9 99780 73
2006-11-22 07:37:30 51°15.543 2°54.526 14.4 22 9.9 99770 73
2006-11-22 07:37:35 51°15.56 2°54.512 16.9 37 9.9 99770 73
2006-11-22 07:37:40 51°15.575 2°54.499 17.3 21 9.9 99800 73
2006-11-22 07:37:46 51°15.594 2°54.482 16.6 33 9.9 99800 73
2006-11-22 07:37:50 51°15.608 2°54.469 16 24 9.9 99790 73
2006-11-22 07:37:56 51°15.626 2°54.452 16.4 34 9.9 99790 73
2006-11-22 07:38:00 51°15.639 2°54.439 17.3 26 9.9 99790 73
2006-11-22 07:38:05 51°15.654 2°54.423 16.3 35 9.9 99790 73
2006-11-22 07:38:10 51°15.669 2°54.406 18.5 21 9.9 99780 72
2006-11-22 07:38:16 51°15.687 2°54.385 18.4 234 9.9 99780 72
2006-11-22 07:38:20 51°15.7 2°54.371 16.7 24 9.9 99770 72
2006-11-22 07:38:25 51°15.713 2°54.355 16.9 34 9.9 99770 72
2006-11-22 07:38:30 51°15.728 2°54.335 15.4 23 9.9 99760 72
2006-11-22 07:38:36 51°15.745 2°54.314 16.5 36 9.9 99760 72
2006-11-22 07:38:40 51°15.756 2°54.298 16 24 9.9 99770 72
2006-11-22 07:38:45 51°15.771 2°54.279 16.1 36 9.9 99770 72
2006-11-22 07:38:50 51°15.784 2°54.26 16.7 22 9.9 99790 72
2006-11-22 07:38:56 51°15.802 2°54.237 16.1 32 9.9 99790 72
2006-11-22 07:39:00 51°15.813 2°54.222 17.6 21 9.9 99790 73
2006-11-22 07:39:06 51°15.831 2°54.2 15.5 35 9.9 99790 73
2006-11-22 07:39:10 51°15.841 2°54.184 18.3 23 9.9 99780 73
2006-11-22 07:39:15 51°15.855 2°54.166 17.3 35 9.9 99780 73
2006-11-22 07:39:20 51°15.87 2°54.146 17.8 24 9.9 99770 72
2006-11-22 07:39:25 51°15.883 2°54.128 15.8 33 9.9 99770 72
2006-11-22 07:39:30 51°15.896 2°54.109 15.4 22 9.9 99780 72
2006-11-22 07:39:35 51°15.912 2°54.089 16.8 34 9.9 99780 72
2006-11-22 07:39:40 51°15.924 2°54.071 17.5 23 9.9 99760 72
2006-11-22 07:39:46 51°15.941 2°54.048 18.2 36 9.9 99760 72
2006-11-22 07:39:50 51°15.952 2°54.033 17.1 25 9.9 99780 72
2006-11-22 07:39:55 51°15.965 2°54.014 17.3 35 9.9 99780 72
2006-11-22 07:40:00 51°15.98 2°53.994 18 25 9.9 99760 72
2006-11-22 07:40:05 51°15.993 2°53.976 19.8 32 9.9 99760 72
2006-11-22 07:40:10 51°16.007 2°53.958 17.8 23 9.9 99760 71
2006-11-22 07:40:15 51°16.021 2°53.938 18.5 34 9.9 99760 71
2006-11-22 07:40:20 51°16.035 2°53.92 17 22 9.9 99770 71
2006-11-22 07:40:26 51°16.052 2°53.897 18 36 9.9 99770 71
2006-11-22 07:40:30 51°16.063 2°53.882 18.9 23 9.9 99790 72
2006-11-22 07:40:36 51°16.08 2°53.858 17.3 36 9.9 99790 72
2006-11-22 07:40:40 51°16.091 2°53.843 18.6 23 9.9 99760 72
2006-11-22 07:40:46 51°16.107 2°53.82 16.8 33 9.9 99760 72
2006-11-22 07:40:50 51°16.118 2°53.806 15.6 24 9.9 99770 72
2006-11-22 07:40:56 51°16.136 2°53.782 17 34 9.9 99770 72
2006-11-22 07:41:00 51°16.147 2°53.767 16.6 24 9.9 99760 71
2006-11-22 07:41:05 51°16.161 2°53.748 16.3 37 9.9 99760 71
2006-11-22 07:41:10 51°16.174 2°53.73 16.9 21 9.9 99770 71
2006-11-22 07:41:16 51°16.191 2°53.707 16.7 31 9.9 99770 71
2006-11-22 07:41:19 51°16.2 2°53.696 17.5 21 9.8 99760 71
2006-11-22 07:41:25 51°16.216 2°53.674 18.2 35 9.8 99760 71
2006-11-22 07:41:30 51°16.23 2°53.657 16.6 22 9.8 99770 71
2006-11-22 07:41:36 51°16.247 2°53.635 17.3 34 9.8 99770 71
2006-11-22 07:41:40 51°16.259 2°53.619 18.1 21 9.9 99780 72
2006-11-22 07:41:45 51°16.272 2°53.603 16.9 34 9.9 99780 72
2006-11-22 07:41:50 51°16.286 2°53.585 15.8 20 9.9 99760 71
2006-11-22 07:41:55 51°16.3 2°53.565 17.1 31 9.9 99760 71
2006-11-22 07:42:00 51°16.314 2°53.547 15.7 21 9.8 99770 71
2006-11-22 07:42:06 51°16.331 2°53.525 18.1 34 9.8 99770 71
2006-11-22 07:42:10 51°16.343 2°53.511 17.6 21 9.8 99770 71
2006-11-22 07:42:15 51°16.356 2°53.493 17 33 9.8 99770 71
2006-11-22 07:42:20 51°16.37 2°53.475 18 23 9.9 99780 72
2006-11-22 07:42:26 51°16.387 2°53.452 17.3 35 9.9 99780 72
2006-11-22 07:42:30 51°16.398 2°53.438 17.5 22 9.8 99750 71
2006-11-22 07:42:36 51°16.414 2°53.417 18.7 32 9.8 99750 71
2006-11-22 07:42:40 51°16.426 2°53.402 17.4 22 9.8 99770 71
2006-11-22 07:42:46 51°16.442 2°53.383 17.9 34 9.8 99770 71
2006-11-22 07:42:50 51°16.454 2°53.368 16.4 24 9.8 99760 70
2006-11-22 07:42:56 51°16.471 2°53.347 15 38 9.8 99760 70
2006-11-22 07:43:00 51°16.482 2°53.333 14.3 23 9.8 99780 70
2006-11-22 07:43:05 51°16.496 2°53.315 17.6 35 9.8 99780 70
2006-11-22 07:43:10 51°16.51 2°53.298 17.7 26 9.8 99780 70
2006-11-22 07:43:16 51°16.529 2°53.276 14.4 31 9.8 99780 70
2006-11-22 07:43:20 51°16.539 2°53.264 17.3 21 9.8 99790 71
2006-11-22 07:43:26 51°16.556 2°53.244 16.9 35 9.8 99790 71
2006-11-22 07:43:29 51°16.565 2°53.234 17.9 23 9.9 99790 72
2006-11-22 07:43:36 51°16.585 2°53.21 17.4 35 9.9 99790 72
2006-11-22 07:43:40 51°16.596 2°53.196 15.8 23 9.9 99760 72
2006-11-22 07:43:46 51°16.614 2°53.176 19.2 34 9.9 99760 72
2006-11-22 07:43:50 51°16.625 2°53.162 17.4 23 9.9 99770 73
2006-11-22 07:43:56 51°16.642 2°53.143 17.8 33 9.9 99770 73
2006-11-22 07:44:00 51°16.653 2°53.129 17.9 23 9.9 99760 72
2006-11-22 07:44:05 51°16.668 2°53.111 15.6 31 9.9 99760 72
2006-11-22 07:44:10 51°16.681 2°53.097 16 22 9.9 99770 72
2006-11-22 07:44:15 51°16.696 2°53.079 16.6 37 9.9 99770 72
2006-11-22 07:44:20 51°16.709 2°53.064 17.1 25 9.9 99780 71
2006-11-22 07:44:26 51°16.727 2°53.043 16.8 34 9.9 99780 71
2006-11-22 07:44:30 51°16.738 2°53.03 17.6 22 9.8 99790 71
2006-11-22 07:44:36 51°16.755 2°53.011 16.7 31 9.8 99790 71
2006-11-22 07:44:40 51°16.766 2°52.997 18 22 9.9 99770 71
2006-11-22 07:44:46 51°16.783 2°52.977 16.4 33 9.9 99770 71
2006-11-22 07:44:50 51°16.794 2°52.965 16.3 24 9.9 99780 71
2006-11-22 07:44:56 51°16.811 2°52.945 17.2 34 9.9 99780 71
2006-11-22 07:45:00 51°16.822 2°52.931 17.9 20 9.9 99770 72
2006-11-22 07:45:05 51°16.836 2°52.914 17.4 33 9.9 99770 72
2006-11-22 07:45:10 51°16.849 2°52.898 16.3 23 9.9 99770 72
2006-11-22 07:45:16 51°16.865 2°52.878 16.5 32 9.9 99770 72
2006-11-22 07:45:21 51°16.879 2°52.863 16.5 22 9.9 99790 73
2006-11-22 07:45:25 51°16.89 2°52.849 18.3 34 9.9 99790 73
2006-11-22 07:45:30 51°16.903 2°52.835 17.7 26 9.8 99770 72
2006-11-22 07:45:36 51°16.92 2°52.815 18.4 32 9.8 99770 72
2006-11-22 07:45:40 51°16.932 2°52.802 17.3 23 9.8 99780 72
2006-11-22 07:45:46 51°16.948 2°52.781 18 36 9.8 99780 72
2006-11-22 07:45:50 51°16.959 2°52.767 17.3 23 9.8 99780 72
2006-11-22 07:45:55 51°16.973 2°52.75 17.6 32 9.8 99780 72
2006-11-22 07:46:00 51°16.986 2°52.734 17 22 9.8 99760 71
2006-11-22 07:46:06 51°17.004 2°52.714 14.6 37 9.8 99760 71
2006-11-22 07:46:10 51°17.015 2°52.702 16 23 9.8 99780 71
2006-11-22 07:46:15 51°17.03 2°52.687 18.8 33 9.8 99780 71
2006-11-22 07:46:21 51°17.049 2°52.668 16.1 26 9.8 99790 71
2006-11-22 07:46:26 51°17.063 2°52.655 15.4 31 9.8 99790 71
2006-11-22 07:46:30 51°17.076 2°52.644 17 20 9.8 99780 72
2006-11-22 07:46:35 51°17.09 2°52.632 16.6 238 9.8 99780 72
2006-11-22 07:46:40 51°17.107 2°52.62 15.7 24 9.8 99770 72
2006-11-22 07:46:46 51°17.125 2°52.61 17 237 9.8 99770 72
2006-11-22 07:46:50 51°17.139 2°52.604 16.2 25 9.8 99790 72
2006-11-22 07:46:56 51°17.158 2°52.596 15.6 239 9.8 99790 72
2006-11-22 07:47:00 51°17.172 2°52.591 15.2 21 9.8 99770 72
2006-11-22 07:47:06 51°17.192 2°52.583 14.9 245 9.8 99770 72
2006-11-22 07:47:10 51°17.205 2°52.58 14 25 9.8 99790 72
2006-11-22 07:47:16 51°17.224 2°52.573 15.5 241 9.8 99790 72
2006-11-22 07:47:20 51°17.237 2°52.568 16 23 9.8 99770 72
2006-11-22 07:47:25 51°17.253 2°52.563 13.8 241 9.8 99770 72
2006-11-22 07:47:30 51°17.27 2°52.557 15 25 9.8 99800 72
2006-11-22 07:47:36 51°17.29 2°52.549 14.4 240 9.8 99800 72
2006-11-22 07:47:40 51°17.304 2°52.543 14.1 26 9.7 99780 72
2006-11-22 07:47:45 51°17.319 2°52.538 12.7 238 9.7 99780 72
2006-11-22 07:47:50 51°17.336 2°52.531 13.9 247 9.8 99780 73
2006-11-22 07:47:56 51°17.357 2°52.526 15.4 245 9.8 99780 73
2006-11-22 07:48:01 51°17.374 2°52.521 12.7 21 9.8 99780 73
2006-11-22 07:48:05 51°17.388 2°52.518 14.4 241 9.8 99780 73
2006-11-22 07:48:10 51°17.404 2°52.513 14 23 9.8 99790 73
2006-11-22 07:48:15 51°17.421 2°52.51 15.8 240 9.8 99790 73
2006-11-22 07:48:21 51°17.442 2°52.505 13.7 25 9.8 99810 74
2006-11-22 07:48:25 51°17.455 2°52.503 15.1 239 9.8 99810 74
2006-11-22 07:48:30 51°17.473 2°52.499 14.3 22 9.8 99800 74
2006-11-22 07:48:35 51°17.49 2°52.497 13.7 239 9.8 99800 74
2006-11-22 07:48:40 51°17.506 2°52.494 14.4 23 9.8 99770 74
2006-11-22 07:48:45 51°17.523 2°52.493 15.4 242 9.8 99770 74
2006-11-22 07:48:50 51°17.541 2°52.491 13.1 21 9.8 99790 74
2006-11-22 07:48:55 51°17.558 2°52.489 13.6 239 9.8 99790 74
2006-11-22 07:49:00 51°17.575 2°52.487 14.6 22 9.8 99800 74
2006-11-22 07:49:05 51°17.592 2°52.484 13.6 242 9.8 99800 74
2006-11-22 07:49:10 51°17.609 2°52.482 16.5 23 9.8 99790 73
2006-11-22 07:49:15 51°17.625 2°52.481 15 242 9.8 99790 73
2006-11-22 07:49:20 51°17.643 2°52.479 16.1 24 9.8 99790 73
2006-11-22 07:49:25 51°17.66 2°52.478 15.4 244 9.8 99790 73
2006-11-22 07:49:30 51°17.678 2°52.475 13.4 24 9.8 99790 74
2006-11-22 07:49:36 51°17.698 2°52.473 12.8 241 9.8 99790 74
2006-11-22 07:49:40 51°17.712 2°52.471 12.3 26 9.8 99770 73
2006-11-22 07:49:46 51°17.731 2°52.469 15.4 236 9.8 99770 73
2006-11-22 07:49:50 51°17.745 2°52.464 14.9 25 9.8 99790 73
2006-11-22 07:49:55 51°17.762 2°52.463 14.3 239 9.8 99790 73
2006-11-22 07:50:00 51°17.779 2°52.46 14.8 23 9.8 99800 74
2006-11-22 07:50:05 51°17.797 2°52.457 15.1 239 9.8 99800 74
2006-11-22 07:50:10 51°17.814 2°52.456 14.9 23 9.8 99810 74
2006-11-22 07:50:15 51°17.83 2°52.454 15.3 243 9.8 99810 74
2006-11-22 07:50:20 51°17.847 2°52.454 12.6 21 9.8 99780 74
2006-11-22 07:50:25 51°17.864 2°52.454 13.2 244 9.8 99780 74
2006-11-22 07:50:31 51°17.885 2°52.461 12.5 23 9.8 99790 74
2006-11-22 07:50:35 51°17.898 2°52.463 12 248 9.8 99790 74
2006-11-22 07:50:40 51°17.913 2°52.47 9.1 21 9.8 99790 73
2006-11-22 07:50:45 51°17.929 2°52.476 12.9 252 9.8 99790 73
2006-11-22 07:50:50 51°17.947 2°52.484 10.8 252 9.8 99790 73
2006-11-22 07:50:55 51°17.962 2°52.495 11.7 250 9.8 99790 73
2006-11-22 07:51:00 51°17.977 2°52.506 11 254 9.8 99790 73
2006-11-22 07:51:06 51°17.994 2°52.522 15.3 257 9.8 99790 73
2006-11-22 07:51:10 51°18.006 2°52.535 14.3 257 9.8 99800 74
2006-11-22 07:51:16 51°18.023 2°52.553 12 252 9.8 99800 74
2006-11-22 07:51:20 51°18.036 2°52.564 11.8 253 9.8 99820 74
2006-11-22 07:51:25 51°18.05 2°52.578 10.5 251 9.8 99820 74
2006-11-22 07:51:31 51°18.067 2°52.595 12.4 258 9.8 99820 74
2006-11-22 07:51:36 51°18.08 2°52.612 9.5 256 9.8 99820 74
2006-11-22 07:51:40 51°18.091 2°52.623 11 255 9.8 99830 74
2006-11-22 07:51:45 51°18.105 2°52.642 13.3 258 9.8 99830 74
2006-11-22 07:51:50 51°18.121 2°52.657 9.6 257 9.8 99810 73
2006-11-22 07:51:56 51°18.138 2°52.676 7.5 261 9.8 99810 73
2006-11-22 07:52:00 51°18.149 2°52.688 10.5 257 9.8 99820 73
2006-11-22 07:52:06 51°18.165 2°52.709 6.1 262 9.8 99820 73
2006-11-22 07:52:10 51°18.174 2°52.726 5.3 264 9.8 99840 73
2006-11-22 07:52:16 51°18.19 2°52.747 7.6 258 9.8 99840 73
2006-11-22 07:52:20 51°18.2 2°52.764 6 259 9.8 99830 73
2006-11-22 07:52:25 51°18.214 2°52.782 7.1 261 9.8 99830 73
2006-11-22 07:52:30 51°18.228 2°52.799 7.3 261 9.7 99840 73
2006-11-22 07:52:34 51°18.237 2°52.816 9.3 257 9.7 99840 73
2006-11-22 07:52:40 51°18.252 2°52.838 5.5 262 9.7 99830 72
2006-11-22 07:52:46 51°18.266 2°52.861 6.5 258 9.7 99830 72
2006-11-22 07:52:50 51°18.276 2°52.876 5.6 267 9.7 99830 73
2006-11-22 07:52:56 51°18.29 2°52.9 4.7 262 9.7 99830 73
2006-11-22 07:53:00 51°18.302 2°52.912 8.4 258 9.7 99840 73
2006-11-22 07:53:05 51°18.313 2°52.933 9.4 257 9.7 99840 73
2006-11-22 07:53:10 51°18.327 2°52.949 8.7 262 9.8 99830 73
2006-11-22 07:53:15 51°18.339 2°52.971 10.6 251 9.8 99830 73
2006-11-22 07:53:20 51°18.353 2°52.987 11.2 259 9.8 99840 73
2006-11-22 07:53:26 51°18.367 2°53.011 6.2 263 9.8 99840 73
2006-11-22 07:53:30 51°18.377 2°53.027 7.2 263 9.7 99830 73
2006-11-22 07:53:36 51°18.393 2°53.049 5.2 265 9.7 99830 73
2006-11-22 07:53:40 51°18.401 2°53.066 5.1 260 9.8 99840 73
2006-11-22 07:53:45 51°18.414 2°53.085 10.4 256 9.8 99840 73
2006-11-22 07:53:50 51°18.428 2°53.102 9.8 259 9.7 99840 73
2006-11-22 07:53:56 51°18.443 2°53.126 10.2 258 9.7 99840 73
2006-11-22 07:54:00 51°18.455 2°53.139 11 258 9.7 99830 72
2006-11-22 07:54:05 51°18.466 2°53.16 10.1 260 9.7 99830 72
2006-11-22 07:54:10 51°18.479 2°53.18 8.7 260 9.7 99840 73
2006-11-22 07:54:16 51°18.493 2°53.205 11.1 257 9.7 99840 73
2006-11-22 07:54:20 51°18.505 2°53.219 8.2 259 9.7 99840 73
2006-11-22 07:54:25 51°18.518 2°53.237 9.3 260 9.7 99840 73
2006-11-22 07:54:30 51°18.531 2°53.255 7.3 261 9.7 99830 73
2006-11-22 07:54:36 51°18.546 2°53.277 7 262 9.7 99830 73
2006-11-22 07:54:41 51°18.56 2°53.295 9.4 257 9.7 99840 73
2006-11-22 07:54:45 51°18.57 2°53.309 8.1 252 9.7 99840 73
2006-11-22 07:54:50 51°18.583 2°53.329 6.2 259 9.7 99830 72
2006-11-22 07:54:55 51°18.597 2°53.346 9.1 259 9.7 99830 72
2006-11-22 07:55:00 51°18.61 2°53.364 8.2 260 9.7 99830 72
2006-11-22 07:55:06 51°18.626 2°53.386 11.1 258 9.7 99830 72
2006-11-22 07:55:10 51°18.636 2°53.401 6.9 261 9.7 99820 72
2006-11-22 07:55:15 51°18.648 2°53.42 7.8 257 9.7 99820 72
2006-11-22 07:55:20 51°18.662 2°53.439 10.9 260 9.7 99830 73
2006-11-22 07:55:25 51°18.675 2°53.457 8.6 256 9.7 99830 73
2006-11-22 07:55:30 51°18.688 2°53.476 9.3 259 9.7 99830 72
2006-11-22 07:55:35 51°18.702 2°53.49 7.9 256 9.7 99830 72
2006-11-22 07:55:40 51°18.714 2°53.511 7.5 260 9.7 99830 73
2006-11-22 07:55:46 51°18.73 2°53.532 5.9 258 9.7 99830 73
2006-11-22 07:55:50 51°18.74 2°53.547 8.8 258 9.7 99830 73
2006-11-22 07:55:56 51°18.756 2°53.567 7.2 256 9.7 99830 73
2006-11-22 07:56:00 51°18.767 2°53.582 10.1 260 9.7 99820 73
2006-11-22 07:56:05 51°18.781 2°53.597 4.8 262 9.7 99820 73
2006-11-22 07:56:10 51°18.794 2°53.616 7.9 261 9.7 99840 73
2006-11-22 07:56:16 51°18.81 2°53.636 7.1 261 9.7 99840 73
2006-11-22 07:56:20 51°18.82 2°53.65 6 262 9.7 99830 73
2006-11-22 07:56:25 51°18.833 2°53.668 6.4 261 9.7 99830 73
2006-11-22 07:56:30 51°18.846 2°53.685 5.6 262 9.7 99830 73
2006-11-22 07:56:35 51°18.859 2°53.702 6.6 262 9.7 99830 73
2006-11-22 07:56:40 51°18.873 2°53.72 6.8 261 9.7 99820 72
2006-11-22 07:56:45 51°18.886 2°53.735 6.6 260 9.7 99820 72
2006-11-22 07:56:50 51°18.899 2°53.754 6 261 9.7 99840 72
2006-11-22 07:56:56 51°18.915 2°53.774 7.5 261 9.7 99840 72
2006-11-22 07:57:00 51°18.925 2°53.79 6.5 259 9.7 99830 72
2006-11-22 07:57:05 51°18.938 2°53.807 11.9 259 9.7 99830 72
2006-11-22 07:57:10 51°18.951 2°53.826 10 260 9.7 99840 72
2006-11-22 07:57:15 51°18.964 2°53.843 8.6 256 9.7 99840 72
2006-11-22 07:57:20 51°18.978 2°53.86 9.6 255 9.7 99850 72
2006-11-22 07:57:25 51°18.99 2°53.879 9.8 260 9.7 99850 72
2006-11-22 07:57:30 51°19.003 2°53.896 7.6 260 9.7 99840 73
2006-11-22 07:57:35 51°19.015 2°53.914 5.8 263 9.7 99840 73
2006-11-22 07:57:41 51°19.032 2°53.935 9 262 9.7 99830 73
2006-11-22 07:57:45 51°19.041 2°53.951 7.6 260 9.7 99830 73
2006-11-22 07:57:50 51°19.054 2°53.968 5.6 263 9.7 99840 73
2006-11-22 07:57:55 51°19.067 2°53.985 7.6 257 9.7 99840 73
2006-11-22 07:58:01 51°19.082 2°54.009 8.3 258 9.7 99840 73
2006-11-22 07:58:06 51°19.096 2°54.024 7.3 257 9.7 99840 73
2006-11-22 07:58:11 51°19.11 2°54.042 8.5 258 9.7 99840 73
2006-11-22 07:58:15 51°19.121 2°54.056 8.6 260 9.7 99840 73
2006-11-22 07:58:20 51°19.133 2°54.075 8.3 260 9.7 99840 73
2006-11-22 07:58:26 51°19.147 2°54.098 4.9 270 9.7 99840 73
2006-11-22 07:58:30 51°19.157 2°54.112 7.3 259 9.7 99830 73
2006-11-22 07:58:35 51°19.17 2°54.129 4.5 258 9.7 99830 73
2006-11-22 07:58:40 51°19.182 2°54.149 9.7 261 9.7 99830 73
2006-11-22 07:58:45 51°19.194 2°54.167 8.1 260 9.7 99830 73
2006-11-22 07:58:50 51°19.207 2°54.186 9.6 254 9.8 99830 74
2006-11-22 07:58:56 51°19.222 2°54.208 9.4 255 9.8 99830 74
2006-11-22 07:59:01 51°19.234 2°54.227 10.1 258 9.8 99840 74
2006-11-22 07:59:05 51°19.244 2°54.242 6.9 260 9.8 99840 74
2006-11-22 07:59:10 51°19.256 2°54.26 8.9 259 9.7 99830 73
2006-11-22 07:59:15 51°19.267 2°54.281 11 259 9.7 99830 73
2006-11-22 07:59:21 51°19.283 2°54.302 10 260 9.8 99830 73
2006-11-22 07:59:26 51°19.295 2°54.322 11.8 255 9.8 99830 73
2006-11-22 07:59:30 51°19.305 2°54.338 9.3 255 9.7 99840 73
2006-11-22 07:59:36 51°19.32 2°54.358 10.6 260 9.7 99840 73
2006-11-22 07:59:40 51°19.329 2°54.374 8.6 260 9.7 99840 73
2006-11-22 07:59:45 51°19.343 2°54.39 10.6 259 9.7 99840 73
2006-11-22 07:59:50 51°19.356 2°54.407 9 258 9.8 99840 74
2006-11-22 07:59:55 51°19.37 2°54.423 10.3 254 9.8 99840 74
2006-11-22 08:00:00 51°19.383 2°54.44 10.4 20 9.7 99820 73
2006-11-22 08:00:06 51°19.401 2°54.457 11.9 256 9.7 99820 73
2006-11-22 08:00:10 51°19.411 2°54.473 8.8 260 9.7 99830 73
2006-11-22 08:00:16 51°19.427 2°54.492 11 250 9.7 99830 73
2006-11-22 08:00:20 51°19.438 2°54.505 9.1 250 9.7 99830 73
2006-11-22 08:00:25 51°19.452 2°54.521 9.9 255 9.7 99830 73
2006-11-22 08:00:30 51°19.464 2°54.538 10.6 256 9.7 99820 73
2006-11-22 08:00:36 51°19.481 2°54.557 10.1 258 9.7 99820 73
2006-11-22 08:00:40 51°19.491 2°54.572 7.2 260 9.7 99830 73
2006-11-22 08:00:45 51°19.506 2°54.587 9.7 257 9.7 99830 73
2006-11-22 08:00:50 51°19.52 2°54.603 9.8 259 9.7 99820 73
2006-11-22 08:00:54 51°19.531 2°54.616 7.9 261 9.7 99820 73
2006-11-22 08:01:00 51°19.548 2°54.635 9 254 9.7 99820 73
2006-11-22 08:01:05 51°19.563 2°54.651 12.2 254 9.7 99820 73
2006-11-22 08:01:10 51°19.577 2°54.665 13 259 9.7 99830 73
2006-11-22 08:01:15 51°19.591 2°54.68 9.1 259 9.7 99830 73
2006-11-22 08:01:20 51°19.606 2°54.693 11.7 256 9.7 99830 73
2006-11-22 08:01:26 51°19.622 2°54.715 9.9 254 9.7 99830 73
2006-11-22 08:01:30 51°19.635 2°54.724 12.7 258 9.7 99820 74
2006-11-22 08:01:36 51°19.651 2°54.745 7.9 265 9.7 99820 74
2006-11-22 08:01:40 51°19.662 2°54.756 10.6 260 9.7 99820 73
2006-11-22 08:01:46 51°19.678 2°54.776 9.5 256 9.7 99820 73
2006-11-22 08:01:50 51°19.689 2°54.788 10.9 256 9.7 99830 73
2006-11-22 08:01:55 51°19.704 2°54.804 6.2 262 9.7 99830 73
2006-11-22 08:02:00 51°19.716 2°54.822 8.5 260 9.7 99820 74
2006-11-22 08:02:06 51°19.732 2°54.844 8.7 261 9.7 99820 74
2006-11-22 08:02:10 51°19.743 2°54.855 9.9 262 9.7 99830 74
2006-11-22 08:02:14 51°19.754 2°54.869 5.3 262 9.7 99830 74
2006-11-22 08:02:20 51°19.768 2°54.891 6.7 261 9.7 99840 74
2006-11-22 08:02:26 51°19.785 2°54.91 6.7 261 9.7 99840 74
2006-11-22 08:02:30 51°19.796 2°54.923 9.1 258 9.7 99830 73
2006-11-22 08:02:35 51°19.81 2°54.938 6.3 259 9.7 99830 73
2006-11-22 08:02:40 51°19.823 2°54.956 5 260 9.7 99840 73
2006-11-22 08:02:46 51°19.84 2°54.975 5.6 259 9.7 99840 73
2006-11-22 08:02:50 51°19.851 2°54.988 7 260 9.7 99830 73
2006-11-22 08:02:56 51°19.867 2°55.008 7 261 9.7 99830 73
2006-11-22 08:03:01 51°19.881 2°55.025 9.4 257 9.7 99830 73
2006-11-22 08:03:05 51°19.893 2°55.036 6.1 263 9.7 99830 73
2006-11-22 08:03:10 51°19.907 2°55.052 10.1 260 9.7 99830 73
2006-11-22 08:03:15 51°19.921 2°55.068 9.9 258 9.7 99830 73
2006-11-22 08:03:20 51°19.935 2°55.085 9.4 257 9.7 99830 73
2006-11-22 08:03:25 51°19.95 2°55.099 7.4 260 9.7 99830 73
2006-11-22 08:03:30 51°19.964 2°55.116 10.7 259 9.7 99820 73
2006-11-22 08:03:36 51°19.981 2°55.134 4.6 262 9.7 99820 73
2006-11-22 08:03:40 51°19.991 2°55.148 8 255 9.7 99830 74
2006-11-22 08:03:45 51°20.005 2°55.164 7.6 262 9.7 99830 74
2006-11-22 08:03:50 51°20.018 2°55.181 8.8 255 9.7 99820 74
2006-11-22 08:03:55 51°20.033 2°55.195 6.6 264 9.7 99820 74
2006-11-22 08:04:00 51°20.046 2°55.212 5.8 263 9.7 99810 74
2006-11-22 08:04:06 51°20.062 2°55.233 5.8 261 9.7 99810 74
2006-11-22 08:04:09 51°20.071 2°55.244 9 261 9.8 99830 74
2006-11-22 08:04:15 51°20.087 2°55.263 6.7 260 9.8 99830 74
2006-11-22 08:04:20 51°20.1 2°55.28 6.4 261 9.7 99830 74
2006-11-22 08:04:26 51°20.117 2°55.3 9.5 259 9.7 99830 74
2006-11-22 08:04:30 51°20.129 2°55.311 7.8 259 9.7 99830 74
2006-11-22 08:04:35 51°20.143 2°55.33 11.3 253 9.7 99830 74
2006-11-22 08:04:40 51°20.157 2°55.346 6.2 254 9.7 99830 73
2006-11-22 08:04:46 51°20.173 2°55.365 10.8 256 9.7 99830 73
2006-11-22 08:04:50 51°20.184 2°55.379 9 261 9.7 99830 74
2006-11-22 08:04:55 51°20.197 2°55.396 9.3 251 9.7 99830 74
2006-11-22 08:05:00 51°20.21 2°55.412 8.7 256 9.7 99840 74
2006-11-22 08:05:05 51°20.223 2°55.428 10.2 262 9.7 99840 74
2006-11-22 08:05:10 51°20.236 2°55.445 7.4 260 9.8 99830 74
2006-11-22 08:05:15 51°20.25 2°55.461 8.2 261 9.8 99830 74
2006-11-22 08:05:20 51°20.263 2°55.478 6.3 263 9.8 99830 74
2006-11-22 08:05:25 51°20.277 2°55.494 7.2 261 9.8 99830 74
2006-11-22 08:05:30 51°20.291 2°55.51 8.3 259 9.8 99820 74
2006-11-22 08:05:35 51°20.305 2°55.526 6.3 259 9.8 99820 74
2006-11-22 08:05:40 51°20.319 2°55.543 5.5 257 9.7 99830 74
2006-11-22 08:05:45 51°20.333 2°55.559 7 261 9.7 99830 74
2006-11-22 08:05:50 51°20.346 2°55.577 5.3 266 9.7 99820 73
2006-11-22 08:05:56 51°20.363 2°55.596 7.1 261 9.7 99820 73
2006-11-22 08:06:00 51°20.374 2°55.61 6.8 262 9.7 99820 73
2006-11-22 08:06:06 51°20.39 2°55.633 6.4 263 9.7 99820 73
2006-11-22 08:06:10 51°20.402 2°55.643 7.7 261 9.7 99830 74
2006-11-22 08:06:15 51°20.415 2°55.662 10.1 254 9.7 99830 74
2006-11-22 08:06:21 51°20.433 2°55.679 9.5 261 9.7 99820 74
2006-11-22 08:06:26 51°20.446 2°55.697 7.6 261 9.7 99820 74
2006-11-22 08:06:30 51°20.457 2°55.709 8.7 261 9.7 99830 73
2006-11-22 08:06:36 51°20.474 2°55.73 6 263 9.7 99830 73
2006-11-22 08:06:41 51°20.487 2°55.747 7.7 257 9.7 99820 73
2006-11-22 08:06:46 51°20.5 2°55.764 4.3 262 9.7 99820 73
2006-11-22 08:06:50 51°20.509 2°55.779 5.1 259 9.7 99830 73
2006-11-22 08:06:55 51°20.523 2°55.799 10.5 260 9.7 99830 73
2006-11-22 08:07:00 51°20.537 2°55.814 9.1 260 9.7 99810 73
2006-11-22 08:07:06 51°20.551 2°55.838 5.6 263 9.7 99810 73
2006-11-22 08:07:10 51°20.561 2°55.852 5.9 263 9.7 99830 73
2006-11-22 08:07:15 51°20.572 2°55.874 7.1 262 9.7 99830 73
2006-11-22 08:07:20 51°20.586 2°55.887 5.1 262 9.7 99830 74
2006-11-22 08:07:25 51°20.598 2°55.907 6.2 262 9.7 99830 74
2006-11-22 08:07:30 51°20.613 2°55.921 6.7 262 9.7 99840 73
2006-11-22 08:07:36 51°20.625 2°55.946 6.9 264 9.7 99840 73
2006-11-22 08:07:40 51°20.637 2°55.958 4.1 261 9.7 99830 73
2006-11-22 08:07:45 51°20.648 2°55.977 4.9 263 9.7 99830 73
2006-11-22 08:07:50 51°20.661 2°55.995 6.3 262 9.7 99840 73
2006-11-22 08:07:56 51°20.676 2°56.018 6.7 260 9.7 99840 73
2006-11-22 08:08:00 51°20.688 2°56.03 7.1 263 9.7 99830 73
2006-11-22 08:08:05 51°20.7 2°56.048 6.3 262 9.7 99830 73
2006-11-22 08:08:10 51°20.713 2°56.068 5.5 264 9.7 99830 73
2006-11-22 08:08:15 51°20.727 2°56.085 6.1 262 9.7 99830 73
2006-11-22 08:08:21 51°20.742 2°56.106 5.3 265 9.7 99820 72
2006-11-22 08:08:26 51°20.756 2°56.122 6.1 261 9.7 99820 72
2006-11-22 08:08:30 51°20.766 2°56.136 7.3 270 9.7 99820 73
2006-11-22 08:08:35 51°20.778 2°56.157 6.9 261 9.7 99820 73
2006-11-22 08:08:40 51°20.792 2°56.173 5.3 269 9.7 99820 72
2006-11-22 08:08:46 51°20.807 2°56.195 7.4 259 9.7 99820 72
2006-11-22 08:08:50 51°20.817 2°56.209 5.1 266 9.7 99820 72
2006-11-22 08:08:55 51°20.831 2°56.228 5.3 263 9.7 99820 72
2006-11-22 08:09:01 51°20.847 2°56.248 5.2 261 9.7 99830 72
2006-11-22 08:09:06 51°20.859 2°56.268 4.6 264 9.7 99830 72
2006-11-22 08:09:10 51°20.869 2°56.281 5.5 264 9.7 99830 73
2006-11-22 08:09:16 51°20.884 2°56.308 6.6 254 9.7 99830 73
2006-11-22 08:09:20 51°20.897 2°56.317 10.7 258 9.7 99820 72
2006-11-22 08:09:26 51°20.91 2°56.343 8.8 257 9.7 99820 72
2006-11-22 08:09:30 51°20.922 2°56.354 9.4 256 9.7 99830 73
2006-11-22 08:09:36 51°20.937 2°56.379 10.5 260 9.7 99830 73
2006-11-22 08:09:40 51°20.948 2°56.392 11.1 259 9.7 99830 73
2006-11-22 08:09:45 51°20.959 2°56.411 8.2 260 9.7 99830 73
2006-11-22 08:09:50 51°20.973 2°56.43 9.4 257 9.7 99830 74
2006-11-22 08:09:56 51°20.99 2°56.45 9.3 261 9.7 99830 74
2006-11-22 08:10:00 51°20.999 2°56.466 7.5 255 9.7 99830 74
2006-11-22 08:10:05 51°21.014 2°56.48 6.6 258 9.7 99830 74
2006-11-22 08:10:10 51°21.027 2°56.5 9.2 259 9.7 99820 74
2006-11-22 08:10:15 51°21.039 2°56.517 6.9 262 9.7 99820 74
2006-11-22 08:10:20 51°21.052 2°56.536 7.9 258 9.7 99800 73
2006-11-22 08:10:25 51°21.066 2°56.552 6.2 261 9.7 99800 73
2006-11-22 08:10:30 51°21.078 2°56.571 6.7 262 9.7 99810 73
2006-11-22 08:10:35 51°21.092 2°56.589 9.7 257 9.7 99810 73
2006-11-22 08:10:40 51°21.106 2°56.607 6.8 258 9.7 99820 73
2006-11-22 08:10:45 51°21.119 2°56.624 6.5 264 9.7 99820 73
2006-11-22 08:10:50 51°21.132 2°56.642 5.8 265 9.7 99810 73
2006-11-22 08:10:55 51°21.145 2°56.66 6.4 263 9.7 99810 73
2006-11-22 08:11:00 51°21.158 2°56.678 6.5 256 9.7 99810 73
2006-11-22 08:11:05 51°21.171 2°56.695 7.4 259 9.7 99810 73
2006-11-22 08:11:10 51°21.184 2°56.715 7.4 260 9.7 99820 73
2006-11-22 08:11:16 51°21.2 2°56.736 7.3 262 9.7 99820 73
2006-11-22 08:11:21 51°21.213 2°56.754 5.5 263 9.7 99820 73
2006-11-22 08:11:26 51°21.225 2°56.772 5.4 266 9.7 99820 73
2006-11-22 08:11:30 51°21.235 2°56.787 7.8 260 9.7 99820 73
2006-11-22 08:11:34 51°21.246 2°56.803 9.1 261 9.7 99820 73
2006-11-22 08:11:40 51°21.262 2°56.823 5.8 267 9.7 99820 73
2006-11-22 08:11:46 51°21.278 2°56.844 5.4 263 9.7 99820 73
2006-11-22 08:11:50 51°21.289 2°56.86 8.4 262 9.7 99820 73
2006-11-22 08:11:55 51°21.303 2°56.876 6.2 260 9.7 99820 73
2006-11-22 08:12:00 51°21.316 2°56.894 4.1 268 9.7 99810 73
2006-11-22 08:12:06 51°21.332 2°56.914 5.7 263 9.7 99810 73
2006-11-22 08:12:10 51°21.342 2°56.929 5.3 263 9.7 99810 73
2006-11-22 08:12:15 51°21.354 2°56.947 6.6 257 9.7 99810 73
2006-11-22 08:12:20 51°21.367 2°56.965 7.3 259 9.7 99810 73
2006-11-22 08:12:25 51°21.379 2°56.984 10.6 257 9.7 99810 73
2006-11-22 08:12:30 51°21.392 2°57.003 8.1 253 9.7 99800 73
2006-11-22 08:12:36 51°21.406 2°57.024 6.2 265 9.7 99800 73
2006-11-22 08:12:41 51°21.417 2°57.045 6.2 265 9.7 99800 74
2006-11-22 08:12:45 51°21.427 2°57.059 7 261 9.7 99800 74
2006-11-22 08:12:50 51°21.438 2°57.082 6.4 257 9.7 99830 74
2006-11-22 08:12:56 51°21.453 2°57.103 2.6 263 9.7 99830 74
2006-11-22 08:13:00 51°21.462 2°57.121 6 263 9.7 99810 74
2006-11-22 08:13:05 51°21.476 2°57.137 5.9 260 9.7 99810 74
2006-11-22 08:13:10 51°21.487 2°57.157 5.3 261 9.7 99810 73
2006-11-22 08:13:14 51°21.498 2°57.171 8.2 259 9.7 99810 73
2006-11-22 08:13:21 51°21.515 2°57.198 8.7 259 9.7 99810 73
2006-11-22 08:13:26 51°21.528 2°57.216 6.4 260 9.7 99810 73
2006-11-22 08:13:30 51°21.538 2°57.23 6.3 262 9.7 99820 73
2006-11-22 08:13:35 51°21.55 2°57.251 8.1 262 9.7 99820 73
2006-11-22 08:13:40 51°21.564 2°57.269 8.2 258 9.7 99810 73
2006-11-22 08:13:46 51°21.579 2°57.291 6.3 263 9.7 99810 73
2006-11-22 08:13:50 51°21.588 2°57.307 5.8 265 9.6 99800 73
2006-11-22 08:13:55 51°21.602 2°57.324 5.3 267 9.6 99800 73
2006-11-22 08:14:00 51°21.613 2°57.346 6.6 269 9.6 99820 73
2006-11-22 08:14:06 51°21.627 2°57.37 5.1 13 9.6 99820 73
2006-11-22 08:14:10 51°21.636 2°57.386 6.6 260 9.6 99810 73
2006-11-22 08:14:16 51°21.65 2°57.409 4.4 38 9.6 99810 73
2006-11-22 08:14:20 51°21.658 2°57.427 5 265 9.6 99810 73
2006-11-22 08:14:25 51°21.672 2°57.443 6.6 262 9.6 99810 73
2006-11-22 08:14:30 51°21.682 2°57.465 7.6 260 9.6 99830 73
2006-11-22 08:14:36 51°21.697 2°57.487 6.7 262 9.6 99830 73
2006-11-22 08:14:40 51°21.706 2°57.503 6.1 262 9.6 99810 73
2006-11-22 08:14:45 51°21.719 2°57.521 10.9 260 9.6 99810 73
2006-11-22 08:14:50 51°21.73 2°57.541 8.3 261 9.6 99820 73
2006-11-22 08:14:55 51°21.743 2°57.559 6 264 9.6 99820 73
2006-11-22 08:15:00 51°21.754 2°57.58 7 264 9.6 99810 73
2006-11-22 08:15:05 51°21.767 2°57.599 6.4 267 9.6 99810 73
2006-11-22 08:15:10 51°21.776 2°57.621 6.4 268 9.6 99810 73
2006-11-22 08:15:16 51°21.789 2°57.645 5.4 267 9.6 99810 73
2006-11-22 08:15:20 51°21.798 2°57.665 5.5 264 9.6 99810 72
2006-11-22 08:15:26 51°21.811 2°57.688 7.6 270 9.6 99810 72
2006-11-22 08:15:30 51°21.816 2°57.705 6 270 9.6 99810 72
2006-11-22 08:15:35 51°21.824 2°57.725 7.1 38 9.6 99810 72
2006-11-22 08:15:41 51°21.831 2°57.747 6.8 25 9.6 99820 72
2006-11-22 08:15:45 51°21.835 2°57.761 8 38 9.6 99820 72
2006-11-22 08:15:50 51°21.84 2°57.777 6.9 20 9.6 99820 72
2006-11-22 08:15:56 51°21.843 2°57.796 8.8 35 9.6 99820 72
2006-11-22 08:16:00 51°21.846 2°57.808 8 22 9.6 99830 72
2006-11-22 08:16:06 51°21.849 2°57.825 8 32 9.6 99830 72
2006-11-22 08:16:10 51°21.85 2°57.836 8.2 20 9.6 99820 72
2006-11-22 08:16:16 51°21.853 2°57.85 7.2 36 9.6 99820 72
2006-11-22 08:16:20 51°21.853 2°57.86 6.3 23 9.5 99820 71
2006-11-22 08:16:25 51°21.855 2°57.872 6.8 38 9.5 99820 71
2006-11-22 08:16:30 51°21.855 2°57.883 5.9 25 9.6 99830 71
2006-11-22 08:16:35 51°21.855 2°57.893 7 39 9.6 99830 71
2006-11-22 08:16:40 51°21.856 2°57.903 6.6 22 9.5 99830 71
2006-11-22 08:16:45 51°21.855 2°57.912 5 36 9.5 99830 71
2006-11-22 08:16:50 51°21.856 2°57.921 4.8 24 9.5 99830 71
2006-11-22 08:16:55 51°21.855 2°57.93 4.8 30 9.5 99830 71
2006-11-22 08:17:00 51°21.855 2°57.938 6.6 25 9.6 99830 72
2006-11-22 08:17:06 51°21.854 2°57.947 4.7 31 9.6 99830 72
2006-11-22 08:17:10 51°21.854 2°57.954 4.7 22 9.6 99830 72
2006-11-22 08:17:16 51°21.854 2°57.962 8.1 34 9.6 99830 72
2006-11-22 08:17:21 51°21.854 2°57.969 8.2 24 9.6 99820 72
2006-11-22 08:17:26 51°21.855 2°57.975 8.5 39 9.6 99820 72
2006-11-22 08:17:30 51°21.855 2°57.98 8.7 27 9.7 99830 72
2006-11-22 08:17:36 51°21.856 2°57.986 9.6 37 9.7 99830 72
2006-11-22 08:17:41 51°21.857 2°57.99 9.9 22 9.7 99830 72
2006-11-22 08:17:46 51°21.858 2°57.995 9.4 31 9.7 99830 72
2006-11-22 08:17:50 51°21.859 2°57.998 8.2 25 9.7 99820 71
2006-11-22 08:17:55 51°21.859 2°58.001 8.8 32 9.7 99820 71
2006-11-22 08:18:00 51°21.86 2°58.006 7 27 9.8 99820 72
2006-11-22 08:18:06 51°21.861 2°58.01 7.4 36 9.8 99820 72
2006-11-22 08:18:10 51°21.862 2°58.011 9.1 24 9.8 99810 72
2006-11-22 08:18:16 51°21.863 2°58.015 10.4 33 9.8 99810 72
2006-11-22 08:18:20 51°21.864 2°58.018 9.4 25 9.8 99820 73
2006-11-22 08:18:26 51°21.865 2°58.021 8.3 29 9.8 99820 73
2006-11-22 08:18:30 51°21.865 2°58.024 10.1 28 9.8 99820 74
2006-11-22 08:18:35 51°21.866 2°58.025 10.3 270 9.8 99820 74
2006-11-22 08:18:40 51°21.867 2°58.027 11.1 267 9.8 99820 73
2006-11-22 08:18:46 51°21.867 2°58.03 10.9 269 9.8 99820 73
2006-11-22 08:18:50 51°21.868 2°58.031 10.4 271 9.8 99810 73
2006-11-22 08:18:55 51°21.868 2°58.033 9.9 270 9.8 99810 73
2006-11-22 08:19:00 51°21.869 2°58.034 8.5 268 9.7 99820 72
2006-11-22 08:19:05 51°21.87 2°58.036 10.8 38 9.7 99820 72
2006-11-22 08:19:10 51°21.87 2°58.037 10 269 9.7 99800 71
2006-11-22 08:19:16 51°21.87 2°58.038 10.8 270 9.7 99800 71
2006-11-22 08:19:20 51°21.87 2°58.04 7.4 27 9.7 99800 71
2006-11-22 08:19:25 51°21.871 2°58.041 8.9 266 9.7 99800 71
2006-11-22 08:19:30 51°21.872 2°58.041 9.9 266 9.7 99800 71
2006-11-22 08:19:36 51°21.872 2°58.043 9.8 267 9.7 99800 71
2006-11-22 08:19:40 51°21.872 2°58.044 9.4 270 9.6 99810 71
2006-11-22 08:19:45 51°21.873 2°58.044 8.8 268 9.6 99810 71
2006-11-22 08:19:50 51°21.873 2°58.045 7.9 266 9.7 99810 72
2006-11-22 08:19:56 51°21.873 2°58.046 9.7 269 9.7 99810 72
2006-11-22 08:20:00 51°21.874 2°58.046 10.3 268 9.7 99820 72
2006-11-22 08:20:05 51°21.874 2°58.047 7.4 265 9.7 99820 72
2006-11-22 08:20:10 51°21.874 2°58.048 8.2 265 9.7 99810 72
2006-11-22 08:20:15 51°21.874 2°58.049 8.8 264 9.7 99810 72
2006-11-22 08:20:21 51°21.874 2°58.049 7.8 263 9.7 99810 73
2006-11-22 08:20:26 51°21.874 2°58.048 7.7 265 9.7 99810 73
2006-11-22 08:20:31 51°21.874 2°58.049 8.9 266 9.7 99810 73
2006-11-22 08:20:35 51°21.874 2°58.05 8.6 266 9.7 99810 73
2006-11-22 08:20:40 51°21.874 2°58.049 9.1 265 9.6 99820 72
2006-11-22 08:20:46 51°21.874 2°58.049 7.8 269 9.6 99820 72
2006-11-22 08:20:51 51°21.874 2°58.049 8.2 263 9.6 99810 72
2006-11-22 08:20:55 51°21.874 2°58.049 8 264 9.6 99810 72
2006-11-22 08:21:00 51°21.874 2°58.048 7.7 263 9.7 99810 73
2006-11-22 08:21:05 51°21.873 2°58.048 6.6 268 9.7 99810 73
2006-11-22 08:21:10 51°21.873 2°58.047 8.6 260 9.6 99800 73
2006-11-22 08:21:16 51°21.873 2°58.048 9.1 261 9.6 99800 73
2006-11-22 08:21:20 51°21.873 2°58.048 10 261 9.7 99800 73
2006-11-22 08:21:25 51°21.872 2°58.048 9.7 262 9.7 99800 73
2006-11-22 08:21:30 51°21.871 2°58.048 10 261 9.6 99800 73
2006-11-22 08:21:36 51°21.871 2°58.047 8.6 262 9.6 99800 73
2006-11-22 08:21:40 51°21.87 2°58.047 6.2 264 9.7 99800 74
2006-11-22 08:21:45 51°21.87 2°58.046 9 262 9.7 99800 74
2006-11-22 08:21:50 51°21.869 2°58.046 10.2 260 9.7 99810 73
2006-11-22 08:21:55 51°21.868 2°58.046 9.3 262 9.7 99810 73
2006-11-22 08:22:00 51°21.867 2°58.047 9.1 263 9.7 99810 73
2006-11-22 08:22:05 51°21.866 2°58.046 10.4 263 9.7 99810 73
2006-11-22 08:22:10 51°21.866 2°58.047 9.3 263 9.6 99810 73
2006-11-22 08:22:15 51°21.865 2°58.047 7.8 262 9.6 99810 73
2006-11-22 08:22:20 51°21.864 2°58.046 7.7 263 9.6 99810 73
2006-11-22 08:22:26 51°21.863 2°58.046 9.7 262 9.6 99810 73
2006-11-22 08:22:30 51°21.862 2°58.046 8.5 262 9.6 99800 73
2006-11-22 08:22:36 51°21.861 2°58.045 8.1 262 9.6 99800 73
2006-11-22 08:22:40 51°21.86 2°58.045 8.1 262 9.6 99800 72
2006-11-22 08:22:46 51°21.859 2°58.045 7.8 263 9.6 99800 72
2006-11-22 08:22:50 51°21.858 2°58.044 7.3 263 9.6 99810 72
2006-11-22 08:22:54 51°21.858 2°58.044 6.9 260 9.6 99810 72
2006-11-22 08:23:00 51°21.856 2°58.044 9.7 264 9.6 99810 72
2006-11-22 08:23:06 51°21.855 2°58.044 7.9 265 9.6 99810 72
2006-11-22 08:23:10 51°21.854 2°58.044 7.8 264 9.6 99800 72
2006-11-22 08:23:15 51°21.853 2°58.044 7.5 261 9.6 99800 72
2006-11-22 08:23:20 51°21.851 2°58.043 8.5 265 9.6 99810 72
2006-11-22 08:23:26 51°21.85 2°58.043 9.8 262 9.6 99810 72
2006-11-22 08:23:30 51°21.849 2°58.043 9 262 9.6 99800 72
2006-11-22 08:23:35 51°21.848 2°58.043 8.1 264 9.6 99800 72
2006-11-22 08:23:40 51°21.847 2°58.043 9 259 9.6 99810 72
2006-11-22 08:23:45 51°21.846 2°58.044 8.8 264 9.6 99810 72
2006-11-22 08:23:50 51°21.845 2°58.043 8.8 263 9.6 99800 72
2006-11-22 08:23:55 51°21.843 2°58.043 8.2 264 9.6 99800 72
2006-11-22 08:24:00 51°21.842 2°58.044 7.8 262 9.6 99810 72
2006-11-22 08:24:05 51°21.841 2°58.043 8.4 262 9.6 99810 72
2006-11-22 08:24:10 51°21.84 2°58.043 7 264 9.6 99800 72
2006-11-22 08:24:15 51°21.838 2°58.043 7.5 263 9.6 99800 72
2006-11-22 08:24:21 51°21.837 2°58.043 7.2 264 9.6 99800 72
2006-11-22 08:24:26 51°21.836 2°58.043 6.8 267 9.6 99800 72
2006-11-22 08:24:30 51°21.834 2°58.043 8.5 266 9.6 99800 72
2006-11-22 08:24:36 51°21.833 2°58.043 8 263 9.6 99800 72
2006-11-22 08:24:40 51°21.832 2°58.042 7 267 9.5 99810 72
2006-11-22 08:24:45 51°21.83 2°58.042 7.8 263 9.5 99810 72
2006-11-22 08:24:50 51°21.829 2°58.042 7.7 265 9.6 99810 72
2006-11-22 08:24:56 51°21.828 2°58.042 9.8 265 9.6 99810 72
2006-11-22 08:25:00 51°21.826 2°58.042 7.9 264 9.6 99810 73
2006-11-22 08:25:05 51°21.825 2°58.041 8.2 262 9.6 99810 73
2006-11-22 08:25:10 51°21.823 2°58.042 8.1 264 9.6 99800 72
2006-11-22 08:25:14 51°21.822 2°58.042 8.9 263 9.6 99800 72
2006-11-22 08:25:20 51°21.821 2°58.042 7 264 9.6 99800 72
2006-11-22 08:25:26 51°21.819 2°58.041 7.3 263 9.6 99800 72
2006-11-22 08:25:30 51°21.817 2°58.041 8.2 265 9.6 99800 72
2006-11-22 08:25:34 51°21.816 2°58.041 7.2 263 9.6 99800 72
2006-11-22 08:25:40 51°21.815 2°58.041 6.3 263 9.6 99800 72
2006-11-22 08:25:45 51°21.813 2°58.041 8.6 264 9.6 99800 72
2006-11-22 08:25:50 51°21.812 2°58.04 7.8 263 9.6 99800 72
2006-11-22 08:25:55 51°21.81 2°58.041 8.8 265 9.6 99800 72
2006-11-22 08:26:00 51°21.809 2°58.041 9 265 9.6 99800 72
2006-11-22 08:26:05 51°21.808 2°58.04 9.6 265 9.6 99800 72
2006-11-22 08:26:10 51°21.806 2°58.041 7.2 265 9.6 99800 72
2006-11-22 08:26:15 51°21.805 2°58.041 8.2 267 9.6 99800 72
2006-11-22 08:26:21 51°21.803 2°58.041 9.1 266 9.6 99800 72
2006-11-22 08:26:25 51°21.802 2°58.04 9 268 9.6 99800 72
2006-11-22 08:26:30 51°21.801 2°58.04 7.9 264 9.6 99810 72
2006-11-22 08:26:35 51°21.799 2°58.041 6.9 263 9.6 99810 72
2006-11-22 08:26:41 51°21.798 2°58.041 7.3 265 9.6 99800 72
2006-11-22 08:26:46 51°21.798 2°58.041 7.5 265 9.6 99800 72
2006-11-22 08:26:50 51°21.798 2°58.042 6.6 265 9.6 99800 72
2006-11-22 08:26:55 51°21.799 2°58.043 8.4 265 9.6 99800 72
2006-11-22 08:27:00 51°21.801 2°58.043 6.4 266 9.5 99810 72
2006-11-22 08:27:05 51°21.803 2°58.045 8 265 9.5 99810 72
2006-11-22 08:27:10 51°21.806 2°58.046 6.7 263 9.5 99800 71
2006-11-22 08:27:15 51°21.809 2°58.047 6.2 262 9.5 99800 71
2006-11-22 08:27:20 51°21.812 2°58.048 7.8 264 9.5 99810 72
2006-11-22 08:27:26 51°21.817 2°58.05 8.4 259 9.5 99810 72
2006-11-22 08:27:31 51°21.821 2°58.051 8.2 261 9.5 99800 72
2006-11-22 08:27:36 51°21.826 2°58.052 11.6 259 9.5 99800 72
2006-11-22 08:27:40 51°21.83 2°58.053 10.6 259 9.6 99800 72
2006-11-22 08:27:46 51°21.837 2°58.055 8.5 263 9.6 99800 72
2006-11-22 08:27:50 51°21.841 2°58.055 8.6 261 9.6 99790 73
2006-11-22 08:27:56 51°21.849 2°58.057 9.7 259 9.6 99790 73
2006-11-22 08:28:00 51°21.853 2°58.059 9.1 261 9.6 99800 73
2006-11-22 08:28:05 51°21.859 2°58.063 8.3 264 9.6 99800 73
2006-11-22 08:28:10 51°21.865 2°58.067 6.9 267 9.6 99810 73
2006-11-22 08:28:16 51°21.872 2°58.071 7.7 270 9.6 99810 73
2006-11-22 08:28:20 51°21.876 2°58.075 8.6 270 9.6 99810 73
2006-11-22 08:28:25 51°21.881 2°58.081 6.9 267 9.6 99810 73
2006-11-22 08:28:30 51°21.886 2°58.086 6.8 266 9.6 99810 73
2006-11-22 08:28:36 51°21.891 2°58.092 6.9 267 9.6 99810 73
2006-11-22 08:28:40 51°21.895 2°58.097 7.6 268 9.6 99810 74
2006-11-22 08:28:45 51°21.899 2°58.103 8.4 329 9.6 99810 74
2006-11-22 08:28:50 51°21.903 2°58.109 7.3 28 9.6 99820 73
2006-11-22 08:28:55 51°21.907 2°58.115 7.3 32 9.6 99820 73
2006-11-22 08:29:00 51°21.91 2°58.122 6.9 26 9.6 99810 74
2006-11-22 08:29:05 51°21.913 2°58.13 7.5 33 9.6 99810 74
2006-11-22 08:29:10 51°21.916 2°58.137 6.3 27 9.6 99810 73
2006-11-22 08:29:16 51°21.92 2°58.146 7 38 9.6 99810 73
2006-11-22 08:29:21 51°21.922 2°58.154 7.2 24 9.6 99810 73
2006-11-22 08:29:26 51°21.924 2°58.162 4.4 36 9.6 99810 73
2006-11-22 08:29:30 51°21.925 2°58.169 4.6 24 9.7 99810 74
2006-11-22 08:29:35 51°21.926 2°58.177 6.8 36 9.7 99810 74
2006-11-22 08:29:40 51°21.927 2°58.184 6 22 9.6 99820 74
2006-11-22 08:29:46 51°21.928 2°58.194 5.3 35 9.6 99820 74
2006-11-22 08:29:50 51°21.927 2°58.199 4.1 23 9.6 99810 74
2006-11-22 08:29:55 51°21.927 2°58.206 5.7 35 9.6 99810 74
2006-11-22 08:30:00 51°21.927 2°58.213 5.9 20 9.7 99840 74
2006-11-22 08:30:06 51°21.926 2°58.221 6.4 34 9.7 99840 74
2006-11-22 08:30:10 51°21.925 2°58.226 6.2 27 9.7 99810 75
2006-11-22 08:30:15 51°21.924 2°58.233 5.9 31 9.7 99810 75
2006-11-22 08:30:20 51°21.923 2°58.238 6.5 18 9.7 99830 76
2006-11-22 08:30:26 51°21.921 2°58.245 6.1 33 9.7 99830 76
2006-11-22 08:30:30 51°21.92 2°58.25 7 27 9.7 99820 74
2006-11-22 08:30:36 51°21.918 2°58.256 7.5 33 9.7 99820 74
2006-11-22 08:30:41 51°21.915 2°58.261 8.1 25 9.7 99820 73
2006-11-22 08:30:45 51°21.914 2°58.265 8.6 34 9.7 99820 73
2006-11-22 08:30:50 51°21.912 2°58.269 8.7 42 9.7 99820 73
2006-11-22 08:30:56 51°21.909 2°58.275 8.6 43 9.7 99820 73
2006-11-22 08:31:00 51°21.907 2°58.278 9.2 20 9.7 99820 74
2006-11-22 08:31:05 51°21.904 2°58.281 8.3 36 9.7 99820 74
2006-11-22 08:31:10 51°21.901 2°58.284 9.4 41 9.7 99810 74
2006-11-22 08:31:16 51°21.898 2°58.288 9.9 37 9.7 99810 74
2006-11-22 08:31:20 51°21.895 2°58.29 9.3 33 9.7 99830 73
2006-11-22 08:31:25 51°21.892 2°58.293 9.9 33 9.7 99830 73
2006-11-22 08:31:30 51°21.889 2°58.295 9.5 34 9.7 99820 73
2006-11-22 08:31:35 51°21.887 2°58.298 11.1 30 9.7 99820 73
2006-11-22 08:31:41 51°21.882 2°58.3 10.3 30 9.7 99820 73
2006-11-22 08:31:46 51°21.879 2°58.302 9.6 29 9.7 99820 73
2006-11-22 08:31:50 51°21.876 2°58.302 10.7 28 9.7 99820 73
2006-11-22 08:31:55 51°21.873 2°58.304 10.8 27 9.7 99820 73
2006-11-22 08:32:01 51°21.869 2°58.305 9.9 27 9.6 99810 72
2006-11-22 08:32:06 51°21.866 2°58.306 9.4 27 9.6 99810 72
2006-11-22 08:32:10 51°21.863 2°58.306 11.8 25 9.6 99800 72
2006-11-22 08:32:16 51°21.86 2°58.306 9.9 19 9.6 99800 72
2006-11-22 08:32:20 51°21.857 2°58.307 9.9 20 9.6 99800 72
2006-11-22 08:32:26 51°21.853 2°58.307 10.4 20 9.6 99800 72
2006-11-22 08:32:30 51°21.85 2°58.306 10 24 9.6 99800 72
2006-11-22 08:32:35 51°21.847 2°58.305 9.7 19 9.6 99800 72
2006-11-22 08:32:41 51°21.843 2°58.305 10.3 18 9.6 99800 72
2006-11-22 08:32:46 51°21.839 2°58.305 9.5 15 9.6 99800 72
2006-11-22 08:32:50 51°21.836 2°58.304 10.1 10 9.6 99810 72
2006-11-22 08:32:55 51°21.832 2°58.302 11.9 11 9.6 99810 72
2006-11-22 08:33:01 51°21.828 2°58.301 11.3 11 9.6 99810 72
2006-11-22 08:33:06 51°21.825 2°58.299 11.9 8 9.6 99810 72
2006-11-22 08:33:10 51°21.822 2°58.299 10.6 10 9.6 99810 72
2006-11-22 08:33:15 51°21.818 2°58.296 8.9 6 9.6 99810 72
2006-11-22 08:33:21 51°21.814 2°58.294 11 8 9.6 99810 72
2006-11-22 08:33:26 51°21.81 2°58.293 10 7 9.6 99810 72
2006-11-22 08:33:30 51°21.807 2°58.292 8.8 6 9.6 99800 73
2006-11-22 08:33:36 51°21.802 2°58.29 8.5 5 9.6 99800 73
2006-11-22 08:33:41 51°21.799 2°58.287 10.1 7 9.6 99810 73
2006-11-22 08:33:46 51°21.795 2°58.285 9.7 2 9.6 99810 73
2006-11-22 08:33:50 51°21.792 2°58.284 10 1 9.6 99810 73
2006-11-22 08:33:55 51°21.789 2°58.281 9.2 2 9.6 99810 73
2006-11-22 08:34:00 51°21.785 2°58.278 8.7 3 9.6 99800 73
2006-11-22 08:34:06 51°21.781 2°58.275 9.5 360 9.6 99800 73
2006-11-22 08:34:10 51°21.778 2°58.272 9.6 2 9.6 99800 73
2006-11-22 08:34:15 51°21.775 2°58.27 10.9 354 9.6 99800 73
2006-11-22 08:34:20 51°21.771 2°58.267 10.2 355 9.6 99800 73
2006-11-22 08:34:25 51°21.768 2°58.263 10.9 352 9.6 99800 73
2006-11-22 08:34:30 51°21.765 2°58.26 12.4 351 9.6 99810 73
2006-11-22 08:34:36 51°21.761 2°58.256 13 349 9.6 99810 73
2006-11-22 08:34:40 51°21.759 2°58.254 11.8 349 9.6 99810 73
2006-11-22 08:34:46 51°21.756 2°58.25 11.8 348 9.6 99810 73
2006-11-22 08:34:50 51°21.753 2°58.247 12.3 349 9.6 99810 73
2006-11-22 08:34:55 51°21.75 2°58.244 12.4 350 9.6 99810 73
2006-11-22 08:35:00 51°21.748 2°58.241 11.9 351 9.6 99820 73
2006-11-22 08:35:05 51°21.745 2°58.238 11.9 350 9.6 99820 73
2006-11-22 08:35:10 51°21.742 2°58.234 11.4 352 9.6 99810 73
2006-11-22 08:35:16 51°21.739 2°58.231 11.6 350 9.6 99810 73
2006-11-22 08:35:20 51°21.737 2°58.228 10.4 350 9.6 99800 73
2006-11-22 08:35:25 51°21.734 2°58.225 11 353 9.6 99800 73
2006-11-22 08:35:30 51°21.731 2°58.221 11.1 352 9.6 99810 73
2006-11-22 08:35:36 51°21.727 2°58.216 10.5 351 9.6 99810 73
2006-11-22 08:35:40 51°21.724 2°58.213 11.5 350 9.6 99800 72
2006-11-22 08:35:45 51°21.721 2°58.21 11.2 349 9.6 99800 72
2006-11-22 08:35:50 51°21.718 2°58.206 10.8 350 9.5 99820 72
2006-11-22 08:35:56 51°21.715 2°58.202 10.9 348 9.5 99820 72
2006-11-22 08:36:00 51°21.712 2°58.199 10.7 350 9.5 99800 72
2006-11-22 08:36:06 51°21.708 2°58.194 10 347 9.5 99800 72
2006-11-22 08:36:10 51°21.705 2°58.191 11.1 347 9.5 99810 72
2006-11-22 08:36:15 51°21.702 2°58.187 10.7 348 9.5 99810 72
2006-11-22 08:36:20 51°21.699 2°58.182 10.1 348 9.5 99810 72
2006-11-22 08:36:25 51°21.696 2°58.178 11.1 355 9.5 99810 72
2006-11-22 08:36:30 51°21.692 2°58.173 10.6 350 9.5 99800 72
2006-11-22 08:36:35 51°21.688 2°58.169 11.7 349 9.5 99800 72
2006-11-22 08:36:40 51°21.685 2°58.163 12.1 347 9.5 99820 72
2006-11-22 08:36:46 51°21.681 2°58.158 12.1 349 9.5 99820 72
2006-11-22 08:36:50 51°21.678 2°58.155 12.4 347 9.6 99820 74
2006-11-22 08:36:56 51°21.674 2°58.15 11.2 347 9.6 99820 74
2006-11-22 08:37:00 51°21.671 2°58.146 12 348 9.6 99810 73
2006-11-22 08:37:05 51°21.668 2°58.141 10.9 346 9.6 99810 73
2006-11-22 08:37:10 51°21.665 2°58.137 12 349 9.5 99810 72
2006-11-22 08:37:16 51°21.661 2°58.132 12.1 352 9.5 99810 72
2006-11-22 08:37:21 51°21.657 2°58.127 10.4 350 9.5 99800 72
2006-11-22 08:37:25 51°21.655 2°58.123 11.1 351 9.5 99800 72
2006-11-22 08:37:30 51°21.652 2°58.118 11 353 9.5 99790 71
2006-11-22 08:37:36 51°21.648 2°58.113 10.2 348 9.5 99790 71
2006-11-22 08:37:40 51°21.645 2°58.109 12.1 353 9.5 99800 72
2006-11-22 08:37:45 51°21.642 2°58.104 10.6 349 9.5 99800 72
2006-11-22 08:37:50 51°21.639 2°58.099 10 348 9.5 99810 72
2006-11-22 08:37:56 51°21.635 2°58.092 11.8 345 9.5 99810 72
2006-11-22 08:38:01 51°21.632 2°58.087 13.2 348 9.6 99790 73
2006-11-22 08:38:06 51°21.629 2°58.082 12.6 349 9.6 99790 73
2006-11-22 08:38:10 51°21.627 2°58.079 11.9 345 9.6 99800 74
2006-11-22 08:38:16 51°21.623 2°58.073 11.4 346 9.6 99800 74
2006-11-22 08:38:21 51°21.62 2°58.067 12.7 344 9.6 99800 74
2006-11-22 08:38:25 51°21.618 2°58.063 11.3 346 9.6 99800 74
2006-11-22 08:38:30 51°21.615 2°58.059 12.4 348 9.6 99800 73
2006-11-22 08:38:36 51°21.612 2°58.055 12.1 349 9.6 99800 73
2006-11-22 08:38:40 51°21.609 2°58.052 11.2 349 9.5 99810 72
2006-11-22 08:38:46 51°21.605 2°58.047 11.7 352 9.5 99810 72
2006-11-22 08:38:50 51°21.603 2°58.044 11.4 347 9.5 99800 72
2006-11-22 08:38:56 51°21.6 2°58.039 10.9 352 9.5 99800 72
2006-11-22 08:39:00 51°21.598 2°58.036 10.9 346 9.5 99790 72
2006-11-22 08:39:06 51°21.594 2°58.031 11 347 9.5 99790 72
2006-11-22 08:39:10 51°21.592 2°58.029 9.8 349 9.5 99800 72
2006-11-22 08:39:15 51°21.59 2°58.024 10.9 346 9.5 99800 72
2006-11-22 08:39:21 51°21.587 2°58.02 10.8 348 9.5 99800 71
2006-11-22 08:39:25 51°21.584 2°58.017 10.3 343 9.5 99800 71
2006-11-22 08:39:30 51°21.582 2°58.014 9.2 344 9.5 99810 72
2006-11-22 08:39:36 51°21.579 2°58.009 10.1 346 9.5 99810 72
2006-11-22 08:39:40 51°21.577 2°58.006 9.5 343 9.5 99810 73
2006-11-22 08:39:46 51°21.573 2°58.002 9.6 341 9.5 99810 73
2006-11-22 08:39:50 51°21.572 2°57.998 10 344 9.6 99810 73
2006-11-22 08:39:56 51°21.569 2°57.993 9 340 9.6 99810 73
2006-11-22 08:40:00 51°21.567 2°57.99 10.6 337 9.6 99810 74
2006-11-22 08:40:05 51°21.564 2°57.986 10.9 338 9.6 99810 74
2006-11-22 08:40:10 51°21.562 2°57.982 11.1 339 9.6 99810 74
2006-11-22 08:40:16 51°21.56 2°57.978 11.1 339 9.6 99810 74
2006-11-22 08:40:21 51°21.558 2°57.974 10.7 339 9.6 99810 74
2006-11-22 08:40:26 51°21.556 2°57.969 10.4 339 9.6 99810 74
2006-11-22 08:40:30 51°21.554 2°57.966 10.5 339 9.6 99820 74
2006-11-22 08:40:35 51°21.552 2°57.963 10.2 342 9.6 99820 74
2006-11-22 08:40:41 51°21.549 2°57.958 11.5 340 9.6 99820 73
2006-11-22 08:40:46 51°21.547 2°57.954 10.5 340 9.6 99820 73
2006-11-22 08:40:50 51°21.546 2°57.951 10 338 9.5 99810 72
2006-11-22 08:40:55 51°21.544 2°57.946 10.7 340 9.5 99810 72
2006-11-22 08:41:00 51°21.542 2°57.942 10.6 339 9.5 99820 72
2006-11-22 08:41:06 51°21.539 2°57.936 11.5 336 9.5 99820 72
2006-11-22 08:41:10 51°21.537 2°57.934 10 336 9.5 99810 72
2006-11-22 08:41:16 51°21.535 2°57.928 10.1 338 9.5 99810 72
2006-11-22 08:41:20 51°21.533 2°57.924 10.1 339 9.5 99820 71
2006-11-22 08:41:26 51°21.531 2°57.918 10.5 335 9.5 99820 71
2006-11-22 08:41:30 51°21.53 2°57.914 9.5 335 9.5 99810 71
2006-11-22 08:41:36 51°21.527 2°57.907 9.5 332 9.5 99810 71
2006-11-22 08:41:40 51°21.525 2°57.903 11 331 9.5 99820 71
2006-11-22 08:41:45 51°21.524 2°57.897 11 329 9.5 99820 71
2006-11-22 08:41:50 51°21.523 2°57.891 11.6 331 9.6 99820 72
2006-11-22 08:41:55 51°21.521 2°57.885 11.2 328 9.6 99820 72
2006-11-22 08:42:01 51°21.519 2°57.878 12 330 9.6 99820 73
2006-11-22 08:42:06 51°21.517 2°57.873 10.1 329 9.6 99820 73
2006-11-22 08:42:10 51°21.516 2°57.868 11.1 328 9.6 99820 73
2006-11-22 08:42:16 51°21.515 2°57.862 10.1 326 9.6 99820 73
2006-11-22 08:42:20 51°21.514 2°57.858 10.4 327 9.6 99830 73
2006-11-22 08:42:25 51°21.512 2°57.852 11.5 326 9.6 99830 73